Latest Weather Observations for Mount Gellibrand

IDV60801

Issued at 4:31 pm EST Tuesday 28 April 2015 (issued every 30 minutes, with the page automatically refreshed every 10 minutes)

About weather observations | Map of weather stations | Latest weather observations for VIC | Other Formats
Station Details ID: 090035 Name: MOUNT GELLIBRAND Lat: -38.23 Lon: 143.79 Height: 261.0 m
Data from the previous 72 hours. | See also: Recent months at Mount Gellibrand
Date/Time
EST
Temp
°C
App
Temp
°C
Dew
Point
Rel
Hum
%
Delta-T
°C
Wind Press
QNH
hPa
Press
MSL
hPa
Rain
since 9 am
mm
Dir
 
Spd
km/h
Gust
km/h
Spd
kts
Gust
kts
28/04:30pm 12.2 5.7 2.9 53 4.1 SSE 26 32 14 17 1028.6 1028.3 0.0
28/04:00pm 12.4 6.7 5.1 61 3.4 S 24 32 13 17 1028.5 1028.2 0.0
28/03:30pm 12.2 7.6 6.5 68 2.7 SSE 20 28 11 15 1028.6 1028.3 0.0
28/03:00pm 12.3 8.8 7.2 71 2.5 SSE 15 20 8 11 1028.6 1028.3 0.0
28/02:30pm 11.9 7.5 7.2 73 2.3 SSE 20 26 11 14 1028.8 1028.6 0.0
28/02:00pm 12.9 8.0 6.7 66 3.0 S 22 32 12 17 1028.7 1028.4 0.0
28/01:30pm 13.0 8.1 7.0 67 2.9 S 22 26 12 14 1028.8 1028.6 0.0
28/01:00pm 13.1 8.2 6.7 65 3.1 SSE 22 28 12 15 1029.0 1028.8 0.0
28/12:30pm 12.0 8.2 7.7 75 2.1 S 17 20 9 11 1029.5 1029.3 0.0
28/12:00pm 12.0 9.0 7.9 76 2.0 SSW 13 19 7 10 1029.7 1029.5 0.0
28/11:30am 12.3 9.4 8.2 76 2.0 S 13 19 7 10 1029.8 1029.6 0.0
28/11:00am 12.1 9.6 8.4 78 1.8 S 11 17 6 9 1029.7 1029.5 0.0
28/10:30am 11.2 9.1 8.2 82 1.5 SSW 9 15 5 8 1029.7 1029.5 0.0
28/10:00am 11.1 9.2 9.0 87 1.1 S 9 13 5 7 1029.6 1029.4 0.0
28/09:30am 10.5 7.6 9.7 95 0.4 SSW 15 20 8 11 1029.5 1029.3 0.0
28/09:00am 9.5 6.7 8.7 95 0.4 SW 13 17 7 9 1029.2 1029.0 0.0
28/08:30am 9.1 5.5 8.3 95 0.4 SSW 17 20 9 11 1029.2 1029.0 0.0
28/08:00am 8.8 5.1 8.0 95 0.4 SSW 17 20 9 11 1028.8 1028.6 0.0
28/07:30am 8.3 3.9 7.5 95 0.4 SSW 20 24 11 13 1028.5 1028.2 0.0
28/07:00am 8.3 4.0 7.2 93 0.5 SSW 19 20 10 11 1028.3 1028.0 0.0
28/06:30am 8.1 4.2 6.9 92 0.6 SW 17 20 9 11 1027.8 1027.6 0.0
28/06:00am 8.4 4.0 7.3 93 0.5 SSW 20 24 11 13 1027.4 1027.2 0.0
28/05:30am 8.0 3.1 6.9 93 0.5 SSW 22 26 12 14 1027.2 1027.0 0.0
28/05:00am 8.0 3.5 7.1 94 0.4 SSW 20 24 11 13 1027.0 1026.8 0.0
28/04:30am 7.5 2.6 6.8 95 0.3 SSW 22 26 12 14 1026.6 1026.4 0.0
28/04:00am 7.2 2.8 6.6 96 0.3 SW 19 20 10 11 1026.5 1026.3 0.0
28/03:30am 7.4 3.4 6.8 96 0.3 SW 17 19 9 10 1026.3 1026.1 0.0
28/03:00am 7.5 3.2 7.1 97 0.2 SW 19 22 10 12 1026.3 1026.1 0.0
28/02:30am 7.4 3.5 7.0 97 0.2 SW 17 19 9 10 1026.2 1026.0 0.0
28/02:00am 7.5 3.9 6.9 96 0.3 SSW 15 17 8 9 1026.2 1026.0 0.0
28/01:30am 7.5 3.6 6.9 96 0.3 SW 17 19 9 10 1026.2 1026.0 0.0
28/01:00am 7.7 3.8 7.1 96 0.3 WSW 17 19 9 10 1026.3 1026.1 0.0
28/12:30am 7.9 3.5 7.3 96 0.3 WSW 20 24 11 13 1026.3 1026.1 0.0
28/12:00am 7.7 3.4 7.1 96 0.3 WSW 19 20 10 11 1026.3 1026.1 0.0
 
Date/Time
EST
Temp
°C
App
Temp
°C
Dew
Point
Rel
Hum
%
Delta-T
°C
Wind Press
QNH
hPa
Press
MSL
hPa
Rain
since 9 am
mm
Dir
 
Spd
km/h
Gust
km/h
Spd
kts
Gust
kts
27/11:30pm 8.0 3.6 7.2 95 0.4 SW 20 22 11 12 1026.2 1026.0 0.0
27/11:00pm 8.2 3.8 7.3 94 0.4 SW 20 24 11 13 1026.2 1026.0 0.0
27/10:30pm 8.3 4.1 7.4 94 0.4 SW 19 22 10 12 1026.3 1026.1 0.0
27/10:00pm 8.4 4.0 7.3 93 0.5 WSW 20 24 11 13 1026.2 1026.0 0.0
27/09:30pm 7.9 3.5 6.7 92 0.6 SW 19 20 10 11 1026.1 1025.9 0.0
27/09:00pm 8.4 3.9 7.0 91 0.7 SW 20 24 11 13 1025.8 1025.6 0.0
27/08:30pm 8.3 3.3 6.6 89 0.8 SW 22 24 12 13 1025.6 1025.4 0.0
27/08:00pm 9.1 4.2 6.7 85 1.1 SW 22 26 12 14 1025.4 1025.1 0.0
27/07:30pm 9.2 4.2 6.6 84 1.2 SW 22 28 12 15 1025.1 1024.8 0.0
27/07:00pm 9.5 5.0 6.8 83 1.3 SW 20 26 11 14 1024.9 1024.6 0.0
27/06:30pm 9.7 5.2 6.8 82 1.4 SW 20 24 11 13 1024.7 1024.4 0.0
27/06:00pm 10.4 6.1 7.1 80 1.6 SSW 19 24 10 13 1024.4 1024.1 0.0
27/05:30pm 10.5 6.6 7.0 79 1.7 SW 17 20 9 11 1024.1 1023.8 0.0
27/05:00pm 11.7 5.9 6.4 70 2.5 SW 26 32 14 17 1023.6 1023.4 0.0
27/04:30pm 13.0 6.9 6.6 65 3.1 WSW 28 33 15 18 1023.5 1023.3 0.0
27/04:00pm 12.6 7.7 7.1 69 2.7 SW 22 28 12 15 1023.3 1023.1 0.0
27/03:30pm 12.2 6.6 7.1 71 2.5 SW 26 33 14 18 1023.3 1023.1 0.0
27/03:00pm 12.6 6.6 5.3 61 3.4 SW 26 33 14 18 1023.1 1022.9 0.0
27/02:30pm 12.5 5.9 5.9 64 3.1 SW 30 35 16 19 1022.9 1022.7 0.0
27/02:00pm 12.2 5.1 6.3 67 2.8 SSW 33 41 18 22 1022.5 1022.3 0.0
27/01:30pm 12.9 7.9 6.5 65 3.1 SW 22 30 12 16 1022.6 1022.4 0.0
27/01:00pm 12.2 7.0 7.3 72 2.4 SW 24 32 13 17 1022.9 1022.7 0.0
27/12:30pm 12.5 9.2 8.2 75 2.2 WSW 15 20 8 11 1023.0 1022.8 0.0
27/12:00pm 11.4 6.4 8.1 80 1.6 SSW 24 32 13 17 1023.4 1023.2 0.0
27/11:30am 11.7 6.2 7.6 76 2.0 WSW 26 30 14 16 1023.4 1023.2 0.0
27/11:00am 12.2 7.6 9.6 84 1.3 SW 24 33 13 18 1023.5 1023.3 0.0
27/10:30am 9.9 5.2 9.4 97 0.3 SW 24 30 13 16 1023.5 1023.3 0.0
27/10:00am 10.1 6.5 9.8 98 0.2 SW 19 24 10 13 1023.5 1023.3 0.0
27/09:30am 10.1 6.3 9.8 98 0.2 WSW 20 24 11 13 1023.4 1023.2 0.0
27/09:00am 9.1 6.4 8.8 98 0.1 WSW 13 20 7 11 1023.3 1023.1 0.4
27/08:30am 8.8 5.6 8.5 98 0.1 W 15 17 8 9 1023.2 1023.0 0.4
27/08:00am 8.6 5.4 8.3 98 0.1 W 15 19 8 10 1022.9 1022.7 0.4
27/07:30am 8.0 4.6 7.7 98 0.1 W 15 17 8 9 1022.6 1022.4 0.4
27/07:00am 8.1 4.7 7.8 98 0.1 W 15 19 8 10 1022.3 1022.1 0.2
27/06:30am 8.0 4.6 7.7 98 0.1 W 15 19 8 10 1022.0 1021.7 0.2
27/06:00am 8.1 4.4 7.8 98 0.1 W 17 20 9 11 1021.8 1021.5 0.2
27/05:30am 7.8 4.0 7.5 98 0.1 W 17 17 9 9 1021.7 1021.4 0.2
27/05:00am 8.1 4.4 7.8 98 0.1 W 17 20 9 11 1021.4 1021.1 0.2
27/04:30am 8.3 5.0 8.0 98 0.1 W 15 20 8 11 1021.2 1020.9 0.2
27/04:00am 8.4 5.1 8.0 97 0.2 W 15 17 8 9 1021.2 1020.9 0.2
27/03:30am 8.4 5.1 8.0 97 0.2 W 15 19 8 10 1021.1 1020.8 0.2
27/03:00am 8.3 4.6 7.9 97 0.2 W 17 20 9 11 1021.1 1020.8 0.2
27/02:30am 8.4 5.1 8.0 97 0.2 W 15 20 8 11 1021.1 1020.8 0.2
27/02:00am 8.1 4.3 7.7 97 0.2 W 17 24 9 13 1021.0 1020.7 0.2
27/01:30am 7.8 3.6 7.4 97 0.2 W 19 20 10 11 1021.0 1020.7 0.2
27/01:00am 7.9 3.1 7.5 97 0.2 W 22 26 12 14 1021.0 1020.7 0.0
27/12:30am 7.6 2.8 7.2 97 0.2 W 22 26 12 14 1021.0 1020.7 0.0
27/12:00am 8.3 4.2 7.9 97 0.2 W 19 24 10 13 1021.1 1020.8 0.0
 
Date/Time
EST
Temp
°C
App
Temp
°C
Dew
Point
Rel
Hum
%
Delta-T
°C
Wind Press
QNH
hPa
Press
MSL
hPa
Rain
since 9 am
mm
Dir
 
Spd
km/h
Gust
km/h
Spd
kts
Gust
kts
26/11:30pm 8.3 4.2 7.9 97 0.2 WSW 19 24 10 13 1021.2 1020.9 0.0
26/11:00pm 8.4 3.4 8.0 97 0.2 WSW 24 28 13 15 1021.2 1020.9 0.0
26/10:30pm 7.9 3.7 7.5 97 0.2 W 19 22 10 12 1021.2 1020.9 0.0
26/10:00pm 8.0 3.8 7.4 96 0.3 W 19 22 10 12 1021.2 1020.9 0.0
26/09:30pm 8.0 3.6 7.4 96 0.3 W 20 24 11 13 1021.1 1020.8 0.0
26/09:00pm 8.1 3.9 7.5 96 0.3 W 19 22 10 12 1021.0 1020.7 0.0
26/08:30pm 8.3 3.2 7.7 96 0.3 WSW 24 28 13 15 1021.0 1020.7 0.0
26/08:00pm 8.4 2.9 7.6 95 0.4 WSW 26 28 14 15 1020.8 1020.5 0.0
26/07:30pm 8.7 2.9 7.8 94 0.4 WSW 28 32 15 17 1020.8 1020.5 0.0
26/07:00pm 8.8 2.5 7.3 90 0.7 WSW 30 35 16 19 1020.7 1020.4 0.0
26/06:30pm 9.0 3.4 7.3 89 0.8 WSW 26 33 14 18 1020.5 1020.2 0.0
26/06:00pm 9.8 4.1 6.9 82 1.4 WSW 26 30 14 16 1020.2 1019.9 0.0
26/05:30pm 10.3 3.3 5.9 74 2.1 WSW 32 39 17 21 1019.7 1019.5 0.0
26/05:00pm 10.3 3.0 7.0 80 1.6 SW 35 44 19 24 1019.6 1019.4 0.0
26/04:50pm 10.5 3.6 7.2 80 1.6 WSW 33 50 18 27 1019.5 1019.3 0.0
26/04:30pm 10.9 5.1 8.0 82 1.4 WSW 28 35 15 19 1019.7 1019.5 0.0
26/04:00pm 10.4 1.1 7.6 83 1.4 WSW 46 59 25 32 1019.4 1019.2 0.0
26/03:30pm 11.9 4.8 6.6 70 2.6 WSW 33 43 18 23 1019.1 1018.9 0.0
26/03:00pm 11.2 4.0 7.5 78 1.8 SW 35 43 19 23 1019.2 1019.0 0.0
26/02:30pm 11.0 3.0 7.5 79 1.7 WSW 39 50 21 27 1018.9 1018.6 0.0
26/02:00pm 11.5 5.6 7.4 76 2.0 SW 28 39 15 21 1018.9 1018.6 0.0
26/01:30pm 10.7 2.4 7.9 83 1.4 WSW 41 48 22 26 1018.8 1018.5 0.0
26/01:03pm 14.0 7.7 7.5 65 3.2 SW 30 50 16 27 1018.4 1018.1 0.0
26/01:00pm 13.5 7.7 7.9 69 2.8 SW 28 35 15 19 1018.6 1018.3 0.0
26/12:30pm 13.2 6.6 7.9 70 2.6 SW 32 39 17 21 1018.6 1018.3 0.0
26/12:00pm 10.2 3.2 8.6 90 0.8 SW 35 57 19 31 1019.0 1018.8 0.0
26/11:50am 10.7 3.6 7.9 83 1.4 SW 35 57 19 31 1018.7 1018.4 0.0
26/11:30am 12.2 5.5 8.1 76 2.0 SW 33 43 18 23 1019.1 1018.9 0.0
26/11:00am 11.9 5.9 7.0 72 2.4 SW 28 37 15 20 1019.2 1019.0 0.0
26/10:30am 11.4 6.4 7.9 79 1.7 SW 24 33 13 18 1019.1 1018.9 0.0
26/10:00am 10.2 5.8 9.0 92 0.6 SW 22 26 12 14 1019.2 1019.0 0.0
26/09:30am 10.0 5.3 9.2 95 0.4 WSW 24 37 13 20 1019.1 1018.9 0.0
26/09:00am 8.7 3.8 8.3 97 0.2 SW 24 32 13 17 1018.9 1018.6 6.2
26/08:30am 8.0 3.8 7.6 97 0.2 WSW 19 20 10 11 1018.7 1018.4 6.2
26/08:00am 7.9 3.7 7.5 97 0.2 WSW 19 30 10 16 1018.3 1018.0 6.2
26/07:30am 7.6 3.3 7.2 97 0.2 SW 19 24 10 13 1017.9 1017.6 6.2
26/07:00am 7.6 2.8 7.2 97 0.2 SW 22 26 12 14 1017.5 1017.2 6.2
26/06:30am 7.2 2.3 6.8 97 0.2 WSW 22 24 12 13 1017.1 1016.8 6.2
26/06:00am 7.6 2.7 7.0 96 0.3 WSW 22 26 12 14 1017.0 1016.7 6.2
26/05:30am 7.7 2.8 7.1 96 0.3 SW 22 28 12 15 1016.7 1016.4 6.2
26/05:00am 7.0 2.4 6.4 96 0.3 WSW 20 24 11 13 1016.7 1016.4 6.2
26/04:30am 7.7 2.5 7.1 96 0.3 WSW 24 26 13 14 1016.5 1016.2 6.2
26/04:00am 7.8 2.9 7.1 95 0.3 SW 22 26 12 14 1016.3 1016.0 6.2
26/03:30am 7.5 3.0 6.8 95 0.3 WSW 20 24 11 13 1016.1 1015.8 6.2
26/03:00am 7.8 3.5 6.9 94 0.4 WSW 19 20 10 11 1016.3 1016.0 6.2
26/02:30am 8.0 3.7 7.1 94 0.4 SW 19 20 10 11 1016.3 1016.0 6.2
26/02:00am 8.0 3.1 6.8 92 0.6 WSW 22 24 12 13 1016.1 1015.8 6.2
26/01:30am 7.9 3.5 6.5 91 0.7 WSW 19 24 10 13 1016.0 1015.7 6.2
26/01:00am 8.4 4.1 6.9 90 0.7 WSW 19 22 10 12 1015.7 1015.5 6.2
26/12:30am 8.6 3.7 7.1 90 0.7 SW 22 30 12 16 1015.5 1015.2 6.2
26/12:00am 9.2 3.9 6.6 84 1.2 WSW 24 26 13 14 1015.4 1015.1 6.2
 
Date/Time
EST
Temp
°C
App
Temp
°C
Dew
Point
Rel
Hum
%
Delta-T
°C
Wind Press
QNH
hPa
Press
MSL
hPa
Rain
since 9 am
mm
Dir
 
Spd
km/h
Gust
km/h
Spd
kts
Gust
kts
25/11:30pm 9.4 4.8 6.7 83 1.3 WSW 20 24 11 13 1015.4 1015.1 6.2
25/11:00pm 9.8 4.0 6.2 78 1.7 SW 26 33 14 18 1015.2 1014.9 6.2
25/10:30pm 9.5 5.0 6.9 84 1.2 SW 20 26 11 14 1015.2 1014.9 6.0
25/10:00pm 9.7 5.4 6.8 82 1.4 SW 19 22 10 12 1015.2 1014.9 6.0
25/09:30pm 9.9 5.6 7.0 82 1.4 SW 19 22 10 12 1015.0 1014.7 6.0
25/09:00pm 9.8 4.3 7.7 87 1.0 SW 26 32 14 17 1014.7 1014.4 6.0
25/08:30pm 9.6 4.6 8.0 90 0.8 SW 24 32 13 17 1014.4 1014.1 6.0
25/08:00pm 9.9 5.7 8.2 89 0.8 SW 20 26 11 14 1014.2 1013.9 6.0
25/07:30pm 10.2 5.7 8.6 90 0.8 SSW 22 28 12 15 1013.9 1013.6 6.0
25/07:00pm 10.3 5.0 8.6 89 0.8 SSW 26 30 14 16 1013.4 1013.1 6.0
25/06:30pm 10.9 6.4 8.7 86 1.1 SSW 22 30 12 16 1012.8 1012.5 6.0
25/06:00pm 11.1 5.9 8.8 86 1.2 SSW 26 33 14 18 1012.1 1011.7 6.0
25/05:30pm 11.6 6.5 9.3 86 1.2 SSW 26 33 14 18 1011.5 1011.2 6.0
25/05:00pm 11.9 5.6 9.8 87 1.1 SSW 33 43 18 23 1011.0 1010.7 6.0

Other Formats:

Comma delimited format used in spreadsheet applications
http://www.bom.gov.au/fwo/IDV60801/IDV60801.95845.axf

JavaScript Object Notation format (JSON) in row-major order
http://www.bom.gov.au/fwo/IDV60801/IDV60801.95845.json